Manchester, Maine
Current Conditions -  °F | °C
As of 4:53 AM on Friday 31 Oct 2014 (Local Time) from KAUG Reporting Station
Clear Clear  
Wind Chill: 36°   Ceiling: Unl
Heat Index: 36°   Visibility: 10mi
Dew Point: 28°   Wind: 3mph
Humidity: 73%   Direction: 310°NW
Pressure: 30.02"   Gusts: NA
Location:  44.32°N, 69.86°W
Report Text: KAUG 310853Z AUTO 31003KT 10SM CLR 02/M02 A3002 RMK AO2 SLP169 T00221022 53006
Loading
Personal Weather Stations






























Interactive Weather Map
Tropical Storm Tracking
New forecast layout! Learn more

10-Day Weather Forecast

Advertisements
Track Severe Weather on mobile